createdAt,value
2023-01-11T00:00:35.784Z,3.09
2023-01-11T00:03:07.255Z,3.14
2023-01-11T00:05:43.851Z,3.13
2023-01-11T00:08:13.039Z,3.18
2023-01-11T00:10:43.258Z,3.31
2023-01-11T00:13:14.442Z,3.23
2023-01-11T00:15:44.444Z,3.20
2023-01-11T00:18:14.194Z,3.24
2023-01-11T00:20:45.068Z,3.21
2023-01-11T00:23:14.822Z,3.26
2023-01-11T00:25:44.755Z,3.30
2023-01-11T00:28:14.612Z,3.36
2023-01-11T00:30:44.456Z,3.26
2023-01-11T00:33:14.418Z,3.05
2023-01-11T00:35:44.246Z,3.10
2023-01-11T00:38:34.207Z,3.03
2023-01-11T00:41:23.887Z,3.28
2023-01-11T00:44:13.036Z,3.23
2023-01-11T00:47:01.710Z,3.24
2023-01-11T00:49:32.531Z,3.14
2023-01-11T00:52:05.632Z,3.12
2023-01-11T00:54:37.848Z,3.13
2023-01-11T00:57:07.448Z,3.06
2023-01-11T00:59:39.564Z,3.14
2023-01-11T01:02:12.294Z,3.03
2023-01-11T01:04:42.487Z,3.06
2023-01-11T01:07:12.827Z,3.19
2023-01-11T01:09:42.944Z,3.25
2023-01-11T01:12:36.665Z,3.16
2023-01-11T01:15:07.837Z,3.07
2023-01-11T01:17:37.958Z,2.95
2023-01-11T01:20:08.951Z,3.13
2023-01-11T01:22:38.697Z,3.10
2023-01-11T01:25:09.621Z,3.19
2023-01-11T01:27:38.209Z,3.13
2023-01-11T01:30:09.866Z,3.14
2023-01-11T01:32:39.403Z,3.10
2023-01-11T01:35:10.297Z,3.22
2023-01-11T01:37:39.717Z,2.96
2023-01-11T01:40:11.049Z,2.72
2023-01-11T01:42:40.408Z,2.86
2023-01-11T01:45:28.656Z,2.92
2023-01-11T01:48:06.862Z,3.05
2023-01-11T01:50:43.478Z,3.07
2023-01-11T01:53:39.822Z,3.14
2023-01-11T01:56:22.960Z,3.20
2023-01-11T01:59:04.987Z,3.37
2023-01-11T02:01:47.122Z,3.37
2023-01-11T02:04:40.922Z,3.25
2023-01-11T02:07:26.627Z,3.37
2023-01-11T02:10:09.439Z,3.42
2023-01-11T02:13:10.529Z,3.61
2023-01-11T02:15:40.583Z,3.51
2023-01-11T02:18:14.352Z,3.57
2023-01-11T02:21:30.155Z,3.72
2023-01-11T02:24:36.540Z,3.67
2023-01-11T02:28:17.944Z,3.64
2023-01-11T02:31:25.299Z,3.64
2023-01-11T02:34:24.192Z,3.68
2023-01-11T02:37:27.672Z,3.77
2023-01-11T02:40:32.503Z,3.87
2023-01-11T02:43:41.242Z,3.70
2023-01-11T02:46:49.494Z,3.78
2023-01-11T02:49:53.235Z,3.80
2023-01-11T02:53:03.943Z,3.82
2023-01-11T02:55:49.668Z,3.51
2023-01-11T02:58:27.368Z,3.46
2023-01-11T03:01:01.103Z,3.77
2023-01-11T03:03:31.249Z,3.93
2023-01-11T03:06:11.492Z,3.85
2023-01-11T03:09:15.223Z,3.87
2023-01-11T03:12:54.460Z,3.71
2023-01-11T03:15:42.958Z,3.78
2023-01-11T03:18:48.129Z,3.82
2023-01-11T03:21:34.174Z,3.78
2023-01-11T03:24:47.124Z,4.07
2023-01-11T03:27:45.299Z,3.91
2023-01-11T03:30:43.415Z,4.09
2023-01-11T03:34:16.691Z,3.98
2023-01-11T03:37:15.915Z,3.99
2023-01-11T03:40:16.593Z,4.16
2023-01-11T03:43:10.954Z,4.07
2023-01-11T03:46:16.286Z,4.10
2023-01-11T03:49:20.936Z,4.06
2023-01-11T03:51:56.635Z,4.02
2023-01-11T03:54:32.276Z,4.07
2023-01-11T03:57:26.151Z,4.07
2023-01-11T03:59:56.236Z,4.04
2023-01-11T04:02:36.386Z,4.16
2023-01-11T04:05:10.930Z,4.12
2023-01-11T04:07:41.237Z,4.10
2023-01-11T04:10:10.755Z,4.06
2023-01-11T04:12:37.893Z,4.08
2023-01-11T04:15:07.456Z,4.08
2023-01-11T04:17:34.735Z,4.22
2023-01-11T04:20:03.370Z,4.29
2023-01-11T04:22:31.551Z,4.33
2023-01-11T04:24:59.969Z,4.30
2023-01-11T04:27:28.726Z,4.30
2023-01-11T04:29:58.871Z,4.17
2023-01-11T04:32:29.081Z,4.15
2023-01-11T04:34:59.082Z,4.00
2023-01-11T04:37:29.184Z,4.17
2023-01-11T04:39:59.271Z,4.05
2023-01-11T04:42:29.271Z,4.08
2023-01-11T04:44:59.377Z,3.96
2023-01-11T04:47:29.354Z,4.12
2023-01-11T04:49:57.011Z,4.07
2023-01-11T04:52:27.109Z,4.17
2023-01-11T04:54:56.918Z,4.07
2023-01-11T04:57:25.410Z,3.97
2023-01-11T04:59:55.406Z,3.99
2023-01-11T05:02:25.296Z,4.05
2023-01-11T05:04:55.211Z,4.03
2023-01-11T05:07:24.955Z,4.13
2023-01-11T05:09:54.864Z,4.27
2023-01-11T05:12:25.162Z,4.18
2023-01-11T05:14:55.394Z,4.24
2023-01-11T05:17:25.053Z,4.16
2023-01-11T05:19:54.836Z,4.22
2023-01-11T05:22:24.612Z,4.21
2023-01-11T05:24:54.343Z,4.14
2023-01-11T05:27:24.212Z,4.07
2023-01-11T05:29:53.871Z,4.20
2023-01-11T05:32:23.632Z,4.15
2023-01-11T05:34:53.472Z,4.17
2023-01-11T05:37:23.367Z,4.27
2023-01-11T05:39:53.221Z,4.21
2023-01-11T05:42:23.516Z,4.06
2023-01-11T05:45:11.740Z,4.15
2023-01-11T05:47:41.810Z,4.15
2023-01-11T05:50:11.523Z,4.19
2023-01-11T05:52:41.435Z,4.21
2023-01-11T05:55:11.230Z,4.32
2023-01-11T05:57:45.567Z,4.29
2023-01-11T06:00:16.264Z,4.28
2023-01-11T06:02:46.086Z,4.33
2023-01-11T06:05:16.534Z,4.31
2023-01-11T06:07:46.516Z,4.25
2023-01-11T06:10:16.674Z,4.21
2023-01-11T06:13:12.849Z,4.33
2023-01-11T06:15:43.066Z,4.21
2023-01-11T06:18:11.371Z,4.12
2023-01-11T06:20:39.716Z,4.39
2023-01-11T06:23:08.224Z,4.30
2023-01-11T06:25:37.880Z,4.45
2023-01-11T06:28:05.709Z,4.44
2023-01-11T06:30:34.086Z,4.57
2023-01-11T06:33:06.152Z,4.34
2023-01-11T06:35:43.642Z,4.23
2023-01-11T06:38:16.370Z,4.35
2023-01-11T06:41:04.832Z,4.45
2023-01-11T06:43:37.837Z,4.31
2023-01-11T06:46:16.356Z,4.48
2023-01-11T06:48:47.144Z,4.35
2023-01-11T06:51:17.301Z,4.34
2023-01-11T06:53:47.289Z,4.47
2023-01-11T06:56:20.868Z,4.52
2023-01-11T06:58:52.306Z,4.38
2023-01-11T07:01:22.648Z,4.45
2023-01-11T07:03:52.836Z,4.57
2023-01-11T07:06:23.168Z,4.54
2023-01-11T07:08:53.140Z,4.55
2023-01-11T07:11:23.124Z,4.54
2023-01-11T07:13:53.128Z,4.54
2023-01-11T07:16:23.138Z,4.52
2023-01-11T07:18:53.194Z,4.68
2023-01-11T07:21:23.293Z,4.61
2023-01-11T07:23:53.348Z,4.53
2023-01-11T07:26:23.471Z,4.61
2023-01-11T07:28:53.571Z,4.51
2023-01-11T07:31:23.581Z,4.44
2023-01-11T07:33:53.563Z,4.47
2023-01-11T07:36:23.549Z,4.50
2023-01-11T07:38:53.654Z,4.62
2023-01-11T07:42:02.232Z,4.54
2023-01-11T07:44:32.327Z,4.56
2023-01-11T07:47:02.363Z,4.69
2023-01-11T07:49:32.533Z,4.74
2023-01-11T07:52:02.615Z,4.77
2023-01-11T07:54:32.609Z,4.58
2023-01-11T07:57:02.681Z,4.63
2023-01-11T07:59:32.708Z,4.68
2023-01-11T08:02:02.735Z,4.80
2023-01-11T08:04:31.193Z,4.74
2023-01-11T08:06:59.660Z,4.92
2023-01-11T08:09:28.008Z,4.94
2023-01-11T08:12:14.951Z,5.04
2023-01-11T08:14:44.968Z,5.11
2023-01-11T08:17:17.102Z,5.13
2023-01-11T08:19:47.189Z,5.27
2023-01-11T08:22:19.887Z,5.22
2023-01-11T08:24:48.677Z,5.23
2023-01-11T08:27:17.108Z,5.28
2023-01-11T08:29:45.577Z,5.22
2023-01-11T08:32:14.005Z,5.15
2023-01-11T08:34:42.345Z,5.27
2023-01-11T08:37:10.897Z,5.36
2023-01-11T08:39:40.482Z,5.39
2023-01-11T08:42:13.106Z,5.29
2023-01-11T08:44:43.265Z,5.39
2023-01-11T08:47:13.394Z,5.48
2023-01-11T08:49:43.429Z,5.42
2023-01-11T08:52:14.706Z,5.25
2023-01-11T08:54:44.984Z,5.31
2023-01-11T08:57:15.044Z,5.26
2023-01-11T08:59:45.052Z,5.57
2023-01-11T09:02:15.148Z,5.45
2023-01-11T09:04:45.198Z,5.55
2023-01-11T09:07:15.195Z,5.63
2023-01-11T09:09:45.188Z,5.72
2023-01-11T09:12:16.503Z,5.68
2023-01-11T09:14:46.504Z,5.66
2023-01-11T09:17:16.531Z,5.65
2023-01-11T09:19:46.550Z,5.59
2023-01-11T09:22:16.875Z,5.96
2023-01-11T09:24:46.922Z,5.74
2023-01-11T09:27:17.310Z,5.77
2023-01-11T09:29:47.426Z,5.75
2023-01-11T09:32:17.403Z,5.90
2023-01-11T09:34:49.645Z,6.22
2023-01-11T09:37:20.287Z,6.19
2023-01-11T09:39:51.551Z,6.09
2023-01-11T09:42:36.840Z,6.02
2023-01-11T09:45:24.619Z,6.06
2023-01-11T09:48:22.649Z,5.93
2023-01-11T09:50:50.712Z,6.02
2023-01-11T09:53:38.503Z,6.04
2023-01-11T09:56:24.576Z,6.08
2023-01-11T09:59:01.964Z,6.02
2023-01-11T10:01:47.072Z,6.03
2023-01-11T10:05:23.543Z,6.03
2023-01-11T10:18:31.449Z,5.79
2023-01-11T10:19:41.087Z,5.99
2023-01-11T10:22:31.689Z,6.04
2023-01-11T10:25:21.938Z,5.98
2023-01-11T10:28:23.129Z,5.90
2023-01-11T10:30:58.108Z,5.78
2023-01-11T10:33:57.979Z,5.75
2023-01-11T10:37:21.453Z,5.56
2023-01-11T10:40:30.705Z,5.62
2023-01-11T10:43:17.139Z,5.51
2023-01-11T10:46:13.127Z,5.78
2023-01-11T10:48:46.690Z,5.54
2023-01-11T10:51:37.297Z,5.53
2023-01-11T10:54:20.532Z,5.45
2023-01-11T10:57:37.030Z,5.59
2023-01-11T11:00:53.527Z,5.70
2023-01-11T11:04:01.053Z,5.72
2023-01-11T11:07:37.155Z,5.74
2023-01-11T11:10:43.320Z,5.71
2023-01-11T11:13:31.377Z,5.84
2023-01-11T11:16:24.261Z,5.88
2023-01-11T11:18:59.444Z,5.87
2023-01-11T11:21:40.367Z,5.82
2023-01-11T11:24:42.333Z,5.79
2023-01-11T11:27:43.451Z,5.72
2023-01-11T11:30:26.704Z,5.73
2023-01-11T11:33:15.766Z,5.82
2023-01-11T11:36:05.149Z,5.71
2023-01-11T11:39:02.658Z,5.80
2023-01-11T11:41:47.073Z,5.82
2023-01-11T11:44:29.095Z,5.78
2023-01-11T11:47:16.964Z,5.79
2023-01-11T11:49:47.600Z,5.78
2023-01-11T11:52:18.484Z,5.94
2023-01-11T11:54:59.224Z,5.89
2023-01-11T11:57:40.363Z,5.90
2023-01-11T12:00:34.909Z,5.89
2023-01-11T12:03:30.653Z,5.89
2023-01-11T12:06:07.540Z,5.97
2023-01-11T12:08:37.818Z,6.07
2023-01-11T12:11:30.007Z,5.96
2023-01-11T12:14:30.949Z,6.27
2023-01-11T12:17:25.870Z,6.22
2023-01-11T12:19:55.942Z,6.06
2023-01-11T12:22:29.248Z,6.28
2023-01-11T12:25:21.832Z,6.17
2023-01-11T12:28:13.846Z,6.27
2023-01-11T12:31:15.182Z,6.35
2023-01-11T12:34:20.388Z,6.38
2023-01-11T12:37:55.536Z,6.34
2023-01-11T12:41:01.609Z,6.35
2023-01-11T12:44:29.093Z,6.34
2023-01-11T12:47:50.408Z,6.23
2023-01-11T12:51:09.626Z,6.38
2023-01-11T12:54:43.028Z,6.47
2023-01-11T12:57:39.607Z,6.53
2023-01-11T13:00:34.231Z,6.38
2023-01-11T13:03:27.764Z,6.42
2023-01-11T13:06:04.791Z,6.50
2023-01-11T13:09:10.967Z,6.40
2023-01-11T13:11:58.143Z,6.32
2023-01-11T13:15:29.384Z,6.35
2023-01-11T13:18:46.844Z,6.39
2023-01-11T13:21:43.396Z,6.33
2023-01-11T13:24:30.389Z,6.45
2023-01-11T13:27:24.378Z,6.52
2023-01-11T13:30:01.134Z,6.46
2023-01-11T13:32:37.771Z,6.43
2023-01-11T13:35:27.181Z,6.33
2023-01-11T13:38:23.292Z,6.30
2023-01-11T13:41:18.840Z,6.45
2023-01-11T13:44:01.685Z,6.68
2023-01-11T13:47:07.782Z,6.36
2023-01-11T13:50:10.561Z,6.41
2023-01-11T13:53:16.279Z,6.46
2023-01-11T13:56:32.266Z,6.40
2023-01-11T13:59:24.654Z,6.48
2023-01-11T14:02:31.176Z,6.53
2023-01-11T14:05:32.427Z,6.38
2023-01-11T14:08:48.206Z,6.57
2023-01-11T14:12:22.156Z,6.65
2023-01-11T14:15:20.661Z,6.49
2023-01-11T14:18:18.803Z,6.59
2023-01-11T14:21:25.287Z,6.46
2023-01-11T14:23:57.136Z,6.64
2023-01-11T14:26:54.511Z,6.68
2023-01-11T14:30:17.058Z,6.71
2023-01-11T14:33:32.834Z,6.63
2023-01-11T14:37:17.499Z,6.56
2023-01-11T14:40:34.733Z,6.40
2023-01-11T14:43:55.974Z,6.43
2023-01-11T14:47:11.250Z,6.42
2023-01-11T14:50:34.998Z,6.45
2023-01-11T14:53:18.536Z,6.55
2023-01-11T14:55:49.285Z,6.45
2023-01-11T14:58:32.703Z,6.43
2023-01-11T15:01:11.512Z,6.38
2023-01-11T15:03:48.816Z,6.55
2023-01-11T15:06:21.551Z,6.58
2023-01-11T15:08:55.943Z,6.66
2023-01-11T15:11:41.953Z,6.64
2023-01-11T15:14:32.811Z,6.53
2023-01-11T15:17:22.556Z,6.54
2023-01-11T15:19:53.403Z,6.49
2023-01-11T15:22:33.938Z,6.61
2023-01-11T15:25:23.793Z,6.58
2023-01-11T15:27:56.024Z,6.53
2023-01-11T15:30:31.937Z,6.46
2023-01-11T15:33:20.326Z,6.50
2023-01-11T15:35:56.226Z,6.63
2023-01-11T15:38:56.907Z,6.59
2023-01-11T15:42:14.991Z,6.65
2023-01-11T15:46:05.594Z,6.87
2023-01-11T15:49:41.882Z,6.64
2023-01-11T15:52:56.338Z,6.62
2023-01-11T15:56:37.305Z,6.68
2023-01-11T15:59:49.916Z,6.69
2023-01-11T16:02:57.470Z,6.77
2023-01-11T16:05:44.151Z,6.70
2023-01-11T16:08:58.637Z,6.56
2023-01-11T16:11:55.779Z,6.58
2023-01-11T16:15:13.310Z,6.55
2023-01-11T16:17:48.169Z,6.51
2023-01-11T16:20:20.974Z,6.63
2023-01-11T16:23:07.493Z,6.51
2023-01-11T16:25:42.471Z,6.52
2023-01-11T16:28:20.195Z,6.53
2023-01-11T16:31:06.016Z,6.57
2023-01-11T16:33:36.213Z,6.58
2023-01-11T16:36:21.581Z,6.57
2023-01-11T16:39:21.181Z,6.62
2023-01-11T16:42:18.064Z,6.56
2023-01-11T16:45:05.893Z,6.58
2023-01-11T16:47:35.918Z,6.53
2023-01-11T16:50:20.705Z,6.52
2023-01-11T16:52:59.708Z,6.65
2023-01-11T16:56:16.145Z,6.68
2023-01-11T16:59:15.232Z,6.60
2023-01-11T17:02:03.688Z,6.58
2023-01-11T17:04:51.211Z,6.56
2023-01-11T17:07:30.084Z,6.61
2023-01-11T17:10:27.951Z,6.65
2023-01-11T17:13:52.671Z,6.75
2023-01-11T17:16:37.060Z,6.71
2023-01-11T17:19:27.479Z,6.61
2023-01-11T17:22:14.694Z,6.54
2023-01-11T17:25:01.626Z,6.61
2023-01-11T17:27:47.582Z,6.56
2023-01-11T17:30:25.616Z,6.54
2023-01-11T17:33:01.790Z,6.59
2023-01-11T17:35:41.737Z,6.69
2023-01-11T17:38:27.646Z,6.63
2023-01-11T17:41:01.308Z,6.68
2023-01-11T17:43:50.809Z,6.64
2023-01-11T17:46:26.419Z,6.62
2023-01-11T17:49:00.658Z,6.63
2023-01-11T17:51:35.231Z,6.66
2023-01-11T17:54:05.422Z,6.84
2023-01-11T17:56:33.446Z,6.75
2023-01-11T17:59:27.033Z,6.92
2023-01-11T18:02:15.765Z,6.89
2023-01-11T18:04:46.183Z,6.96
2023-01-11T18:07:20.164Z,6.93
2023-01-11T18:10:01.550Z,6.99
2023-01-11T18:12:36.221Z,6.86
2023-01-11T18:15:07.811Z,6.88
2023-01-11T18:17:44.323Z,6.87
2023-01-11T18:20:15.725Z,6.85
2023-01-11T18:22:54.622Z,6.80
2023-01-11T18:25:35.285Z,6.86
2023-01-11T18:28:30.655Z,6.78
2023-01-11T18:31:02.073Z,6.73
2023-01-11T18:33:34.893Z,6.65
2023-01-11T18:36:21.154Z,6.60
2023-01-11T18:38:51.386Z,6.60
2023-01-11T18:41:41.709Z,6.57
2023-01-11T18:44:13.359Z,6.44
2023-01-11T18:46:43.424Z,6.46
2023-01-11T18:49:13.437Z,6.42
2023-01-11T18:51:45.385Z,6.33
2023-01-11T18:54:18.966Z,6.35
2023-01-11T18:56:49.071Z,6.31
2023-01-11T18:59:19.150Z,6.36
2023-01-11T19:02:01.303Z,6.32
2023-01-11T19:04:38.246Z,6.28
2023-01-11T19:07:08.363Z,6.22
2023-01-11T19:09:38.620Z,6.25
2023-01-11T19:12:15.139Z,6.22
2023-01-11T19:14:45.331Z,6.24
2023-01-11T19:17:15.424Z,6.14
2023-01-11T19:19:45.402Z,6.07
2023-01-11T19:22:15.529Z,6.01
2023-01-11T19:24:45.806Z,5.91
2023-01-11T19:27:16.625Z,5.87
2023-01-11T19:29:46.917Z,5.99
2023-01-11T19:32:18.554Z,5.98
2023-01-11T19:34:48.639Z,6.08
2023-01-11T19:37:20.794Z,5.94
2023-01-11T19:39:50.764Z,5.84
2023-01-11T19:42:22.829Z,5.99
2023-01-11T19:44:52.403Z,5.87
2023-01-11T19:47:20.955Z,5.83
2023-01-11T19:49:51.162Z,5.72
2023-01-11T19:52:21.756Z,5.75
2023-01-11T19:54:49.697Z,5.70
2023-01-11T19:57:20.951Z,5.74
2023-01-11T19:59:51.075Z,5.64
2023-01-11T20:02:22.270Z,5.68
2023-01-11T20:04:52.348Z,5.73
2023-01-11T20:07:22.549Z,5.66
2023-01-11T20:09:52.195Z,5.77
2023-01-11T20:12:22.252Z,5.78
2023-01-11T20:14:56.948Z,5.72
2023-01-11T20:17:25.186Z,5.71
2023-01-11T20:19:55.352Z,5.58
2023-01-11T20:22:25.919Z,5.53
2023-01-11T20:24:56.197Z,5.49
2023-01-11T20:27:28.083Z,5.43
2023-01-11T20:29:57.445Z,5.30
2023-01-11T20:32:41.419Z,5.38
2023-01-11T20:35:12.062Z,5.42
2023-01-11T20:37:42.066Z,5.33
2023-01-11T20:40:14.292Z,5.19
2023-01-11T20:42:44.607Z,5.19
2023-01-11T20:45:14.463Z,5.15
2023-01-11T20:47:44.582Z,4.96
2023-01-11T20:50:14.344Z,4.86
2023-01-11T20:52:44.050Z,4.80
2023-01-11T20:55:13.703Z,4.89
2023-01-11T20:57:48.100Z,5.09
2023-01-11T21:00:19.493Z,5.03
2023-01-11T21:02:51.038Z,5.08
2023-01-11T21:05:20.383Z,5.04
2023-01-11T21:07:53.649Z,4.98
2023-01-11T21:10:23.651Z,5.01
2023-01-11T21:12:56.500Z,4.93
2023-01-11T21:15:26.541Z,4.86
2023-01-11T21:17:56.381Z,4.86
2023-01-11T21:20:24.903Z,4.72
2023-01-11T21:22:53.314Z,4.71
2023-01-11T21:25:21.845Z,4.61
2023-01-11T21:27:50.258Z,4.49
2023-01-11T21:30:18.704Z,4.40
2023-01-11T21:32:47.128Z,4.33
2023-01-11T21:35:15.443Z,4.24
2023-01-11T21:37:43.968Z,4.23
2023-01-11T21:40:14.886Z,4.22
2023-01-11T21:42:43.981Z,4.18
2023-01-11T21:45:12.458Z,4.13
2023-01-11T21:47:44.360Z,4.08
2023-01-11T21:50:12.091Z,4.13
2023-01-11T21:52:40.314Z,4.20
2023-01-11T21:55:11.094Z,4.16
2023-01-11T21:57:41.155Z,4.20
2023-01-11T22:00:14.145Z,4.15
2023-01-11T22:02:44.370Z,4.23
2023-01-11T22:05:14.519Z,4.24
2023-01-11T22:07:44.710Z,4.15
2023-01-11T22:10:16.134Z,4.13
2023-01-11T22:12:46.230Z,4.06
2023-01-11T22:15:16.416Z,3.98
2023-01-11T22:17:46.484Z,3.99
2023-01-11T22:20:17.685Z,4.05
2023-01-11T22:22:47.710Z,4.06
2023-01-11T22:25:17.781Z,3.97
2023-01-11T22:27:47.755Z,4.07
2023-01-11T22:30:17.877Z,4.03
2023-01-11T22:32:47.972Z,3.93
2023-01-11T22:35:16.739Z,4.07
2023-01-11T22:37:49.288Z,3.99
2023-01-11T22:40:16.820Z,3.86
2023-01-11T22:42:44.895Z,3.79
2023-01-11T22:45:14.656Z,3.90
2023-01-11T22:47:44.443Z,3.84
2023-01-11T22:50:14.250Z,3.78
2023-01-11T22:52:44.297Z,3.86
2023-01-11T22:55:14.156Z,3.79
2023-01-11T22:57:43.908Z,3.88
2023-01-11T23:00:13.649Z,3.89
2023-01-11T23:02:40.863Z,3.99
2023-01-11T23:05:09.554Z,4.16
2023-01-11T23:07:37.734Z,3.95
2023-01-11T23:10:08.585Z,3.92
2023-01-11T23:12:56.170Z,3.92
2023-01-11T23:15:26.197Z,3.95
2023-01-11T23:17:56.383Z,3.77
2023-01-11T23:20:26.173Z,3.65
2023-01-11T23:22:55.915Z,3.68
2023-01-11T23:25:25.606Z,3.68
2023-01-11T23:27:55.979Z,3.55
2023-01-11T23:30:25.856Z,3.51
2023-01-11T23:32:55.586Z,3.60
2023-01-11T23:35:25.482Z,3.49
2023-01-11T23:37:55.524Z,3.40
2023-01-11T23:40:25.387Z,3.40
2023-01-11T23:42:55.171Z,3.50
2023-01-11T23:45:24.928Z,3.49
2023-01-11T23:47:54.714Z,3.76
2023-01-11T23:50:24.516Z,3.60
2023-01-11T23:52:54.454Z,3.56
2023-01-11T23:55:24.438Z,3.51
2023-01-11T23:58:09.910Z,3.71
